sensor_id;sensor_type;location;lat;lon;timestamp;P1;durP1;ratioP1;P2;durP2;ratioP2
71975;SDS011;68326;52.124;5.424;2023-04-22T00:01:16;4.68;;;3.47;;
71975;SDS011;68326;52.124;5.424;2023-04-22T00:03:44;5.20;;;3.67;;
71975;SDS011;68326;52.124;5.424;2023-04-22T00:06:11;9.18;;;3.85;;
71975;SDS011;68326;52.124;5.424;2023-04-22T00:08:38;11.67;;;3.90;;
71975;SDS011;68326;52.124;5.424;2023-04-22T00:11:04;10.00;;;3.70;;
71975;SDS011;68326;52.124;5.424;2023-04-22T00:13:31;7.95;;;3.63;;
71975;SDS011;68326;52.124;5.424;2023-04-22T00:15:58;7.30;;;4.07;;
71975;SDS011;68326;52.124;5.424;2023-04-22T00:18:25;5.55;;;3.42;;
71975;SDS011;68326;52.124;5.424;2023-04-22T00:20:51;6.57;;;2.93;;
71975;SDS011;68326;52.124;5.424;2023-04-22T00:23:17;5.30;;;2.72;;
71975;SDS011;68326;52.124;5.424;2023-04-22T00:25:44;4.88;;;2.90;;
71975;SDS011;68326;52.124;5.424;2023-04-22T00:28:10;6.35;;;2.70;;
71975;SDS011;68326;52.124;5.424;2023-04-22T00:30:37;3.40;;;2.40;;
71975;SDS011;68326;52.124;5.424;2023-04-22T00:33:03;5.10;;;2.70;;
71975;SDS011;68326;52.124;5.424;2023-04-22T00:35:30;3.63;;;1.95;;
71975;SDS011;68326;52.124;5.424;2023-04-22T00:37:56;7.03;;;1.33;;
71975;SDS011;68326;52.124;5.424;2023-04-22T00:40:23;6.53;;;1.45;;
71975;SDS011;68326;52.124;5.424;2023-04-22T00:42:49;29.52;;;2.10;;
71975;SDS011;68326;52.124;5.424;2023-04-22T00:45:16;10.43;;;1.30;;
71975;SDS011;68326;52.124;5.424;2023-04-22T00:47:44;8.73;;;1.40;;
71975;SDS011;68326;52.124;5.424;2023-04-22T00:50:12;6.78;;;1.52;;
71975;SDS011;68326;52.124;5.424;2023-04-22T00:52:38;16.65;;;1.73;;
71975;SDS011;68326;52.124;5.424;2023-04-22T00:55:05;10.95;;;1.27;;
71975;SDS011;68326;52.124;5.424;2023-04-22T00:57:32;14.10;;;1.00;;
71975;SDS011;68326;52.124;5.424;2023-04-22T01:00:00;8.65;;;1.20;;
71975;SDS011;68326;52.124;5.424;2023-04-22T01:02:27;1.83;;;1.30;;
71975;SDS011;68326;52.124;5.424;2023-04-22T01:04:55;3.65;;;1.40;;
71975;SDS011;68326;52.124;5.424;2023-04-22T01:07:22;2.03;;;1.35;;
71975;SDS011;68326;52.124;5.424;2023-04-22T01:09:48;3.03;;;1.40;;
71975;SDS011;68326;52.124;5.424;2023-04-22T01:12:15;2.95;;;1.30;;
71975;SDS011;68326;52.124;5.424;2023-04-22T01:14:41;2.22;;;1.50;;
71975;SDS011;68326;52.124;5.424;2023-04-22T01:17:08;2.50;;;1.90;;
71975;SDS011;68326;52.124;5.424;2023-04-22T01:19:35;6.78;;;2.13;;
71975;SDS011;68326;52.124;5.424;2023-04-22T01:22:03;11.67;;;2.40;;
71975;SDS011;68326;52.124;5.424;2023-04-22T01:24:32;14.48;;;2.83;;
71975;SDS011;68326;52.124;5.424;2023-04-22T01:26:59;14.38;;;2.85;;
71975;SDS011;68326;52.124;5.424;2023-04-22T01:29:27;12.93;;;2.50;;
71975;SDS011;68326;52.124;5.424;2023-04-22T01:31:54;6.10;;;2.47;;
71975;SDS011;68326;52.124;5.424;2023-04-22T01:34:21;4.80;;;2.40;;
71975;SDS011;68326;52.124;5.424;2023-04-22T01:36:48;8.00;;;2.30;;
71975;SDS011;68326;52.124;5.424;2023-04-22T01:39:15;13.57;;;2.13;;
71975;SDS011;68326;52.124;5.424;2023-04-22T01:41:42;3.60;;;1.98;;
71975;SDS011;68326;52.124;5.424;2023-04-22T01:44:09;4.57;;;2.03;;
71975;SDS011;68326;52.124;5.424;2023-04-22T01:46:35;5.50;;;2.50;;
71975;SDS011;68326;52.124;5.424;2023-04-22T01:49:04;2.78;;;1.90;;
71975;SDS011;68326;52.124;5.424;2023-04-22T01:51:31;3.90;;;2.20;;
71975;SDS011;68326;52.124;5.424;2023-04-22T01:53:57;2.35;;;1.52;;
71975;SDS011;68326;52.124;5.424;2023-04-22T01:56:24;2.67;;;1.70;;
71975;SDS011;68326;52.124;5.424;2023-04-22T01:58:51;2.87;;;1.40;;
71975;SDS011;68326;52.124;5.424;2023-04-22T02:01:17;3.83;;;2.00;;
71975;SDS011;68326;52.124;5.424;2023-04-22T02:03:44;10.98;;;1.92;;
71975;SDS011;68326;52.124;5.424;2023-04-22T02:06:10;4.75;;;1.88;;
71975;SDS011;68326;52.124;5.424;2023-04-22T02:08:37;3.90;;;2.20;;
71975;SDS011;68326;52.124;5.424;2023-04-22T02:11:03;4.40;;;2.80;;
71975;SDS011;68326;52.124;5.424;2023-04-22T02:13:33;5.60;;;3.30;;
71975;SDS011;68326;52.124;5.424;2023-04-22T02:16:01;5.07;;;3.13;;
71975;SDS011;68326;52.124;5.424;2023-04-22T02:18:27;4.57;;;2.90;;
71975;SDS011;68326;52.124;5.424;2023-04-22T02:20:53;4.85;;;2.88;;
71975;SDS011;68326;52.124;5.424;2023-04-22T02:23:20;4.53;;;2.60;;
71975;SDS011;68326;52.124;5.424;2023-04-22T02:25:50;6.10;;;3.22;;
71975;SDS011;68326;52.124;5.424;2023-04-22T02:28:17;5.43;;;2.97;;
71975;SDS011;68326;52.124;5.424;2023-04-22T02:30:45;5.03;;;3.08;;
71975;SDS011;68326;52.124;5.424;2023-04-22T02:33:11;4.00;;;3.00;;
71975;SDS011;68326;52.124;5.424;2023-04-22T02:35:38;4.37;;;2.70;;
71975;SDS011;68326;52.124;5.424;2023-04-22T02:38:04;3.95;;;2.60;;
71975;SDS011;68326;52.124;5.424;2023-04-22T02:40:31;4.28;;;3.03;;
71975;SDS011;68326;52.124;5.424;2023-04-22T02:42:57;3.75;;;1.83;;
71975;SDS011;68326;52.124;5.424;2023-04-22T02:45:24;3.17;;;1.63;;
71975;SDS011;68326;52.124;5.424;2023-04-22T02:47:50;2.93;;;2.00;;
71975;SDS011;68326;52.124;5.424;2023-04-22T02:50:17;4.70;;;2.10;;
71975;SDS011;68326;52.124;5.424;2023-04-22T02:52:43;3.20;;;2.08;;
71975;SDS011;68326;52.124;5.424;2023-04-22T02:55:09;3.17;;;1.90;;
71975;SDS011;68326;52.124;5.424;2023-04-22T02:57:36;2.53;;;1.67;;
71975;SDS011;68326;52.124;5.424;2023-04-22T03:00:03;2.40;;;1.60;;
71975;SDS011;68326;52.124;5.424;2023-04-22T03:02:29;2.75;;;1.67;;
71975;SDS011;68326;52.124;5.424;2023-04-22T03:04:56;2.80;;;1.60;;
71975;SDS011;68326;52.124;5.424;2023-04-22T03:07:23;4.18;;;1.83;;
71975;SDS011;68326;52.124;5.424;2023-04-22T03:09:49;3.00;;;2.00;;
71975;SDS011;68326;52.124;5.424;2023-04-22T03:12:15;3.37;;;2.00;;
71975;SDS011;68326;52.124;5.424;2023-04-22T03:14:42;2.33;;;1.73;;
71975;SDS011;68326;52.124;5.424;2023-04-22T03:17:08;2.17;;;1.70;;
71975;SDS011;68326;52.124;5.424;2023-04-22T03:19:35;2.78;;;2.00;;
71975;SDS011;68326;52.124;5.424;2023-04-22T03:22:01;2.38;;;1.90;;
71975;SDS011;68326;52.124;5.424;2023-04-22T03:24:28;2.90;;;2.20;;
71975;SDS011;68326;52.124;5.424;2023-04-22T03:26:54;4.55;;;1.90;;
71975;SDS011;68326;52.124;5.424;2023-04-22T03:29:20;10.55;;;2.40;;
71975;SDS011;68326;52.124;5.424;2023-04-22T03:31:47;2.92;;;2.20;;
71975;SDS011;68326;52.124;5.424;2023-04-22T03:34:13;2.08;;;1.67;;
71975;SDS011;68326;52.124;5.424;2023-04-22T03:36:40;4.53;;;2.13;;
71975;SDS011;68326;52.124;5.424;2023-04-22T03:39:07;3.75;;;2.20;;
71975;SDS011;68326;52.124;5.424;2023-04-22T03:41:33;3.65;;;2.35;;
71975;SDS011;68326;52.124;5.424;2023-04-22T03:44:00;4.18;;;2.60;;
71975;SDS011;68326;52.124;5.424;2023-04-22T03:46:27;4.45;;;3.10;;
71975;SDS011;68326;52.124;5.424;2023-04-22T03:48:53;3.27;;;2.10;;
71975;SDS011;68326;52.124;5.424;2023-04-22T03:51:20;2.80;;;2.08;;
71975;SDS011;68326;52.124;5.424;2023-04-22T03:53:47;3.05;;;2.38;;
71975;SDS011;68326;52.124;5.424;2023-04-22T03:56:13;3.72;;;2.50;;
71975;SDS011;68326;52.124;5.424;2023-04-22T03:58:39;3.30;;;2.28;;
71975;SDS011;68326;52.124;5.424;2023-04-22T04:01:06;3.57;;;2.63;;
71975;SDS011;68326;52.124;5.424;2023-04-22T04:03:33;4.25;;;2.78;;
71975;SDS011;68326;52.124;5.424;2023-04-22T04:05:59;5.40;;;3.47;;
71975;SDS011;68326;52.124;5.424;2023-04-22T04:08:26;7.20;;;3.45;;
71975;SDS011;68326;52.124;5.424;2023-04-22T04:10:53;6.90;;;3.90;;
71975;SDS011;68326;52.124;5.424;2023-04-22T04:13:19;7.27;;;3.50;;
71975;SDS011;68326;52.124;5.424;2023-04-22T04:15:46;6.50;;;3.75;;
71975;SDS011;68326;52.124;5.424;2023-04-22T04:18:13;6.32;;;3.88;;
71975;SDS011;68326;52.124;5.424;2023-04-22T04:20:40;9.68;;;3.60;;
71975;SDS011;68326;52.124;5.424;2023-04-22T04:23:06;5.45;;;2.80;;
71975;SDS011;68326;52.124;5.424;2023-04-22T04:25:33;5.57;;;2.70;;
71975;SDS011;68326;52.124;5.424;2023-04-22T04:28:05;9.35;;;3.13;;
71975;SDS011;68326;52.124;5.424;2023-04-22T04:30:34;7.28;;;3.42;;
71975;SDS011;68326;52.124;5.424;2023-04-22T04:33:02;10.35;;;3.13;;
71975;SDS011;68326;52.124;5.424;2023-04-22T04:35:33;3.92;;;2.38;;
71975;SDS011;68326;52.124;5.424;2023-04-22T04:38:00;3.10;;;2.27;;
71975;SDS011;68326;52.124;5.424;2023-04-22T04:40:27;5.00;;;2.70;;
71975;SDS011;68326;52.124;5.424;2023-04-22T04:42:54;3.58;;;2.58;;
71975;SDS011;68326;52.124;5.424;2023-04-22T04:45:22;6.65;;;2.92;;
71975;SDS011;68326;52.124;5.424;2023-04-22T04:47:49;5.20;;;3.10;;
71975;SDS011;68326;52.124;5.424;2023-04-22T04:50:18;4.53;;;2.93;;
71975;SDS011;68326;52.124;5.424;2023-04-22T04:52:50;5.15;;;3.22;;
71975;SDS011;68326;52.124;5.424;2023-04-22T04:55:18;5.72;;;3.22;;
71975;SDS011;68326;52.124;5.424;2023-04-22T04:57:44;5.78;;;3.67;;
71975;SDS011;68326;52.124;5.424;2023-04-22T05:00:11;5.55;;;3.15;;
71975;SDS011;68326;52.124;5.424;2023-04-22T05:02:41;7.33;;;3.00;;
71975;SDS011;68326;52.124;5.424;2023-04-22T05:05:08;5.75;;;3.22;;
71975;SDS011;68326;52.124;5.424;2023-04-22T05:07:35;6.70;;;4.00;;
71975;SDS011;68326;52.124;5.424;2023-04-22T05:10:02;5.75;;;3.90;;
71975;SDS011;68326;52.124;5.424;2023-04-22T05:12:29;5.82;;;3.80;;
71975;SDS011;68326;52.124;5.424;2023-04-22T05:14:55;5.97;;;3.90;;
71975;SDS011;68326;52.124;5.424;2023-04-22T05:17:22;5.90;;;3.65;;
71975;SDS011;68326;52.124;5.424;2023-04-22T05:19:48;4.82;;;3.28;;
71975;SDS011;68326;52.124;5.424;2023-04-22T05:22:15;6.25;;;3.65;;
71975;SDS011;68326;52.124;5.424;2023-04-22T05:24:43;6.40;;;3.88;;
71975;SDS011;68326;52.124;5.424;2023-04-22T05:27:09;5.47;;;3.47;;
71975;SDS011;68326;52.124;5.424;2023-04-22T05:29:36;6.60;;;3.72;;
71975;SDS011;68326;52.124;5.424;2023-04-22T05:32:02;6.47;;;3.83;;
71975;SDS011;68326;52.124;5.424;2023-04-22T05:34:29;4.82;;;3.33;;
71975;SDS011;68326;52.124;5.424;2023-04-22T05:36:55;7.43;;;4.07;;
71975;SDS011;68326;52.124;5.424;2023-04-22T05:39:21;5.70;;;3.60;;
71975;SDS011;68326;52.124;5.424;2023-04-22T05:41:48;5.78;;;3.33;;
71975;SDS011;68326;52.124;5.424;2023-04-22T05:44:14;5.57;;;3.33;;
71975;SDS011;68326;52.124;5.424;2023-04-22T05:46:42;3.70;;;3.00;;
71975;SDS011;68326;52.124;5.424;2023-04-22T05:49:08;4.18;;;3.35;;
71975;SDS011;68326;52.124;5.424;2023-04-22T05:51:35;4.97;;;3.80;;
71975;SDS011;68326;52.124;5.424;2023-04-22T05:54:01;6.03;;;3.35;;
71975;SDS011;68326;52.124;5.424;2023-04-22T05:56:28;7.75;;;3.58;;
71975;SDS011;68326;52.124;5.424;2023-04-22T05:58:54;7.95;;;4.53;;
71975;SDS011;68326;52.124;5.424;2023-04-22T06:01:21;9.02;;;4.40;;
71975;SDS011;68326;52.124;5.424;2023-04-22T06:03:47;5.07;;;3.70;;
71975;SDS011;68326;52.124;5.424;2023-04-22T06:06:14;6.78;;;4.25;;
71975;SDS011;68326;52.124;5.424;2023-04-22T06:08:40;5.97;;;3.70;;
71975;SDS011;68326;52.124;5.424;2023-04-22T06:11:07;8.45;;;4.35;;
71975;SDS011;68326;52.124;5.424;2023-04-22T06:13:33;8.70;;;4.63;;
71975;SDS011;68326;52.124;5.424;2023-04-22T06:16:00;8.83;;;4.50;;
71975;SDS011;68326;52.124;5.424;2023-04-22T06:18:26;10.18;;;4.90;;
71975;SDS011;68326;52.124;5.424;2023-04-22T06:20:54;7.13;;;5.10;;
71975;SDS011;68326;52.124;5.424;2023-04-22T06:23:20;8.27;;;5.68;;
71975;SDS011;68326;52.124;5.424;2023-04-22T06:25:47;8.80;;;4.95;;
71975;SDS011;68326;52.124;5.424;2023-04-22T06:28:13;11.40;;;6.13;;
71975;SDS011;68326;52.124;5.424;2023-04-22T06:30:40;11.98;;;6.43;;
71975;SDS011;68326;52.124;5.424;2023-04-22T06:33:06;10.70;;;6.82;;
71975;SDS011;68326;52.124;5.424;2023-04-22T06:35:33;13.43;;;7.68;;
71975;SDS011;68326;52.124;5.424;2023-04-22T06:37:59;12.77;;;7.30;;
71975;SDS011;68326;52.124;5.424;2023-04-22T06:40:26;12.50;;;7.53;;
71975;SDS011;68326;52.124;5.424;2023-04-22T06:42:52;16.95;;;8.10;;
71975;SDS011;68326;52.124;5.424;2023-04-22T06:45:19;18.30;;;9.07;;
71975;SDS011;68326;52.124;5.424;2023-04-22T06:47:45;16.48;;;8.70;;
71975;SDS011;68326;52.124;5.424;2023-04-22T06:50:12;18.85;;;9.05;;
71975;SDS011;68326;52.124;5.424;2023-04-22T06:52:39;17.50;;;9.53;;
71975;SDS011;68326;52.124;5.424;2023-04-22T06:55:05;17.30;;;9.55;;
71975;SDS011;68326;52.124;5.424;2023-04-22T06:57:32;18.92;;;9.57;;
71975;SDS011;68326;52.124;5.424;2023-04-22T06:59:58;20.58;;;11.05;;
71975;SDS011;68326;52.124;5.424;2023-04-22T07:02:25;19.50;;;11.90;;
71975;SDS011;68326;52.124;5.424;2023-04-22T07:04:52;25.43;;;13.53;;
71975;SDS011;68326;52.124;5.424;2023-04-22T07:07:18;27.83;;;14.70;;
71975;SDS011;68326;52.124;5.424;2023-04-22T07:09:45;35.80;;;18.65;;
71975;SDS011;68326;52.124;5.424;2023-04-22T07:12:11;26.98;;;14.70;;
71975;SDS011;68326;52.124;5.424;2023-04-22T07:14:41;34.22;;;19.75;;
71975;SDS011;68326;52.124;5.424;2023-04-22T07:17:11;47.23;;;26.13;;
71975;SDS011;68326;52.124;5.424;2023-04-22T07:19:38;52.67;;;27.50;;
71975;SDS011;68326;52.124;5.424;2023-04-22T07:22:07;120.20;;;55.10;;
71975;SDS011;68326;52.124;5.424;2023-04-22T07:24:34;112.18;;;51.85;;
71975;SDS011;68326;52.124;5.424;2023-04-22T07:27:00;54.15;;;28.15;;
71975;SDS011;68326;52.124;5.424;2023-04-22T07:29:27;26.33;;;14.13;;
71975;SDS011;68326;52.124;5.424;2023-04-22T07:31:53;24.02;;;13.77;;
71975;SDS011;68326;52.124;5.424;2023-04-22T07:34:20;24.65;;;14.15;;
71975;SDS011;68326;52.124;5.424;2023-04-22T07:36:46;23.40;;;13.13;;
71975;SDS011;68326;52.124;5.424;2023-04-22T07:39:16;24.42;;;13.40;;
71975;SDS011;68326;52.124;5.424;2023-04-22T07:41:42;21.83;;;12.53;;
71975;SDS011;68326;52.124;5.424;2023-04-22T07:44:09;22.33;;;12.50;;
71975;SDS011;68326;52.124;5.424;2023-04-22T07:46:38;26.92;;;14.63;;
71975;SDS011;68326;52.124;5.424;2023-04-22T07:49:04;20.40;;;11.80;;
71975;SDS011;68326;52.124;5.424;2023-04-22T07:51:31;21.88;;;12.43;;
71975;SDS011;68326;52.124;5.424;2023-04-22T07:53:57;21.60;;;13.03;;
71975;SDS011;68326;52.124;5.424;2023-04-22T07:56:24;25.17;;;13.20;;
71975;SDS011;68326;52.124;5.424;2023-04-22T07:58:51;20.45;;;12.48;;
71975;SDS011;68326;52.124;5.424;2023-04-22T08:01:17;24.17;;;12.57;;
71975;SDS011;68326;52.124;5.424;2023-04-22T08:03:45;20.17;;;12.25;;
71975;SDS011;68326;52.124;5.424;2023-04-22T08:06:12;21.80;;;12.30;;
71975;SDS011;68326;52.124;5.424;2023-04-22T08:08:38;18.17;;;11.60;;
71975;SDS011;68326;52.124;5.424;2023-04-22T08:11:05;24.77;;;12.13;;
71975;SDS011;68326;52.124;5.424;2023-04-22T08:13:32;17.65;;;11.10;;
71975;SDS011;68326;52.124;5.424;2023-04-22T08:16:01;17.73;;;11.35;;
71975;SDS011;68326;52.124;5.424;2023-04-22T08:18:32;16.43;;;10.30;;
71975;SDS011;68326;52.124;5.424;2023-04-22T08:20:59;16.20;;;10.95;;
71975;SDS011;68326;52.124;5.424;2023-04-22T08:23:25;22.80;;;11.68;;
71975;SDS011;68326;52.124;5.424;2023-04-22T08:25:52;16.30;;;11.02;;
71975;SDS011;68326;52.124;5.424;2023-04-22T08:28:18;19.35;;;11.80;;
71975;SDS011;68326;52.124;5.424;2023-04-22T08:30:45;17.73;;;11.07;;
71975;SDS011;68326;52.124;5.424;2023-04-22T08:33:11;17.67;;;10.55;;
71975;SDS011;68326;52.124;5.424;2023-04-22T08:35:37;17.48;;;10.43;;
71975;SDS011;68326;52.124;5.424;2023-04-22T08:38:05;14.45;;;9.68;;
71975;SDS011;68326;52.124;5.424;2023-04-22T08:40:32;18.23;;;9.63;;
71975;SDS011;68326;52.124;5.424;2023-04-22T08:43:00;16.10;;;8.90;;
71975;SDS011;68326;52.124;5.424;2023-04-22T08:45:26;14.68;;;9.13;;
71975;SDS011;68326;52.124;5.424;2023-04-22T08:47:53;11.80;;;8.65;;
71975;SDS011;68326;52.124;5.424;2023-04-22T08:50:21;12.10;;;8.18;;
71975;SDS011;68326;52.124;5.424;2023-04-22T08:52:48;12.73;;;7.68;;
71975;SDS011;68326;52.124;5.424;2023-04-22T08:55:14;10.53;;;6.83;;
71975;SDS011;68326;52.124;5.424;2023-04-22T08:57:41;12.18;;;7.22;;
71975;SDS011;68326;52.124;5.424;2023-04-22T09:00:09;11.43;;;6.97;;
71975;SDS011;68326;52.124;5.424;2023-04-22T09:02:36;11.35;;;6.85;;
71975;SDS011;68326;52.124;5.424;2023-04-22T09:05:04;10.80;;;6.57;;
71975;SDS011;68326;52.124;5.424;2023-04-22T09:07:32;9.53;;;6.67;;
71975;SDS011;68326;52.124;5.424;2023-04-22T09:09:58;10.88;;;6.95;;
71975;SDS011;68326;52.124;5.424;2023-04-22T09:12:24;11.18;;;7.10;;
71975;SDS011;68326;52.124;5.424;2023-04-22T09:14:51;11.13;;;7.38;;
71975;SDS011;68326;52.124;5.424;2023-04-22T09:17:24;11.43;;;7.38;;
71975;SDS011;68326;52.124;5.424;2023-04-22T09:19:56;10.43;;;7.00;;
71975;SDS011;68326;52.124;5.424;2023-04-22T09:22:28;11.00;;;7.45;;
71975;SDS011;68326;52.124;5.424;2023-04-22T09:25:03;14.25;;;8.13;;
71975;SDS011;68326;52.124;5.424;2023-04-22T09:27:30;10.57;;;6.97;;
71975;SDS011;68326;52.124;5.424;2023-04-22T09:29:56;9.38;;;6.68;;
71975;SDS011;68326;52.124;5.424;2023-04-22T09:32:23;10.93;;;6.70;;
71975;SDS011;68326;52.124;5.424;2023-04-22T09:34:51;9.80;;;7.28;;
71975;SDS011;68326;52.124;5.424;2023-04-22T09:37:19;12.38;;;8.05;;
71975;SDS011;68326;52.124;5.424;2023-04-22T09:39:58;10.27;;;7.20;;
71975;SDS011;68326;52.124;5.424;2023-04-22T09:42:24;11.38;;;7.95;;
71975;SDS011;68326;52.124;5.424;2023-04-22T09:44:51;12.23;;;8.70;;
71975;SDS011;68326;52.124;5.424;2023-04-22T09:47:20;12.05;;;8.15;;
71975;SDS011;68326;52.124;5.424;2023-04-22T09:49:48;11.93;;;8.43;;
71975;SDS011;68326;52.124;5.424;2023-04-22T09:52:22;12.95;;;8.48;;
71975;SDS011;68326;52.124;5.424;2023-04-22T09:54:50;14.30;;;8.75;;
71975;SDS011;68326;52.124;5.424;2023-04-22T09:57:20;12.37;;;8.70;;
71975;SDS011;68326;52.124;5.424;2023-04-22T09:59:49;12.80;;;8.38;;
71975;SDS011;68326;52.124;5.424;2023-04-22T10:02:16;12.27;;;8.80;;
71975;SDS011;68326;52.124;5.424;2023-04-22T10:04:43;11.43;;;8.35;;
71975;SDS011;68326;52.124;5.424;2023-04-22T10:07:10;13.43;;;8.88;;
71975;SDS011;68326;52.124;5.424;2023-04-22T10:09:39;12.33;;;8.70;;
71975;SDS011;68326;52.124;5.424;2023-04-22T10:12:06;14.48;;;9.18;;
71975;SDS011;68326;52.124;5.424;2023-04-22T10:14:33;11.95;;;8.25;;
71975;SDS011;68326;52.124;5.424;2023-04-22T10:16:59;15.35;;;8.85;;
71975;SDS011;68326;52.124;5.424;2023-04-22T10:19:28;12.68;;;9.02;;
71975;SDS011;68326;52.124;5.424;2023-04-22T10:21:59;12.63;;;8.10;;
71975;SDS011;68326;52.124;5.424;2023-04-22T10:24:33;11.40;;;8.50;;
71975;SDS011;68326;52.124;5.424;2023-04-22T10:27:04;12.85;;;8.95;;
71975;SDS011;68326;52.124;5.424;2023-04-22T10:29:38;12.63;;;9.13;;
71975;SDS011;68326;52.124;5.424;2023-04-22T10:34:46;13.07;;;9.30;;
71975;SDS011;68326;52.124;5.424;2023-04-22T10:37:18;12.27;;;9.07;;
71975;SDS011;68326;52.124;5.424;2023-04-22T10:42:45;14.38;;;8.73;;
71975;SDS011;68326;52.124;5.424;2023-04-22T10:45:15;12.68;;;8.90;;
71975;SDS011;68326;52.124;5.424;2023-04-22T10:47:42;12.47;;;8.43;;
71975;SDS011;68326;52.124;5.424;2023-04-22T10:52:45;14.57;;;8.82;;
71975;SDS011;68326;52.124;5.424;2023-04-22T10:55:17;14.38;;;9.68;;
71975;SDS011;68326;52.124;5.424;2023-04-22T10:57:45;12.38;;;8.98;;
71975;SDS011;68326;52.124;5.424;2023-04-22T11:00:15;12.67;;;9.13;;
71975;SDS011;68326;52.124;5.424;2023-04-22T11:02:45;12.63;;;8.68;;
71975;SDS011;68326;52.124;5.424;2023-04-22T11:05:34;13.32;;;8.85;;
71975;SDS011;68326;52.124;5.424;2023-04-22T11:08:02;12.07;;;7.60;;
71975;SDS011;68326;52.124;5.424;2023-04-22T11:10:31;10.70;;;7.88;;
71975;SDS011;68326;52.124;5.424;2023-04-22T11:13:10;13.63;;;8.03;;
71975;SDS011;68326;52.124;5.424;2023-04-22T11:15:39;11.32;;;7.88;;
71975;SDS011;68326;52.124;5.424;2023-04-22T11:18:08;9.68;;;7.20;;
71975;SDS011;68326;52.124;5.424;2023-04-22T11:20:37;10.82;;;8.02;;
71975;SDS011;68326;52.124;5.424;2023-04-22T11:23:03;12.55;;;8.52;;
71975;SDS011;68326;52.124;5.424;2023-04-22T11:25:30;13.17;;;8.67;;
71975;SDS011;68326;52.124;5.424;2023-04-22T11:27:57;14.32;;;9.07;;
71975;SDS011;68326;52.124;5.424;2023-04-22T11:30:24;14.45;;;9.65;;
71975;SDS011;68326;52.124;5.424;2023-04-22T11:32:55;15.15;;;9.95;;
71975;SDS011;68326;52.124;5.424;2023-04-22T11:35:31;12.45;;;9.18;;
71975;SDS011;68326;52.124;5.424;2023-04-22T11:38:05;15.27;;;9.63;;
71975;SDS011;68326;52.124;5.424;2023-04-22T11:40:34;13.40;;;9.65;;
71975;SDS011;68326;52.124;5.424;2023-04-22T11:43:06;14.18;;;10.25;;
71975;SDS011;68326;52.124;5.424;2023-04-22T11:45:34;15.20;;;10.05;;
71975;SDS011;68326;52.124;5.424;2023-04-22T11:48:04;16.65;;;10.30;;
71975;SDS011;68326;52.124;5.424;2023-04-22T11:50:32;13.47;;;10.00;;
71975;SDS011;68326;52.124;5.424;2023-04-22T11:55:30;14.30;;;9.80;;
71975;SDS011;68326;52.124;5.424;2023-04-22T11:58:03;12.75;;;8.90;;
71975;SDS011;68326;52.124;5.424;2023-04-22T12:00:44;12.15;;;8.77;;
71975;SDS011;68326;52.124;5.424;2023-04-22T12:03:14;13.97;;;9.33;;
71975;SDS011;68326;52.124;5.424;2023-04-22T12:05:45;15.25;;;9.43;;
71975;SDS011;68326;52.124;5.424;2023-04-22T12:08:15;13.13;;;8.95;;
71975;SDS011;68326;52.124;5.424;2023-04-22T12:10:50;13.55;;;8.68;;
71975;SDS011;68326;52.124;5.424;2023-04-22T12:13:24;14.38;;;8.48;;
71975;SDS011;68326;52.124;5.424;2023-04-22T12:15:55;12.47;;;8.63;;
71975;SDS011;68326;52.124;5.424;2023-04-22T12:18:27;13.57;;;9.02;;
71975;SDS011;68326;52.124;5.424;2023-04-22T12:21:24;13.02;;;9.50;;
71975;SDS011;68326;52.124;5.424;2023-04-22T12:23:57;13.30;;;8.70;;
71975;SDS011;68326;52.124;5.424;2023-04-22T12:26:35;13.13;;;8.73;;
71975;SDS011;68326;52.124;5.424;2023-04-22T12:29:03;14.53;;;9.00;;
71975;SDS011;68326;52.124;5.424;2023-04-22T12:31:29;12.65;;;8.98;;
71975;SDS011;68326;52.124;5.424;2023-04-22T12:33:56;14.27;;;9.00;;
71975;SDS011;68326;52.124;5.424;2023-04-22T12:36:22;13.45;;;8.43;;
71975;SDS011;68326;52.124;5.424;2023-04-22T12:38:50;12.52;;;8.32;;
71975;SDS011;68326;52.124;5.424;2023-04-22T12:41:16;12.73;;;8.13;;
71975;SDS011;68326;52.124;5.424;2023-04-22T12:43:43;12.32;;;8.50;;
71975;SDS011;68326;52.124;5.424;2023-04-22T12:46:09;14.30;;;8.27;;
71975;SDS011;68326;52.124;5.424;2023-04-22T12:48:36;15.63;;;8.25;;
71975;SDS011;68326;52.124;5.424;2023-04-22T12:51:03;12.93;;;8.68;;
71975;SDS011;68326;52.124;5.424;2023-04-22T12:53:30;13.33;;;8.57;;
71975;SDS011;68326;52.124;5.424;2023-04-22T12:55:57;14.93;;;7.93;;
71975;SDS011;68326;52.124;5.424;2023-04-22T12:58:24;13.48;;;8.15;;
71975;SDS011;68326;52.124;5.424;2023-04-22T13:00:51;16.73;;;8.80;;
71975;SDS011;68326;52.124;5.424;2023-04-22T13:03:17;12.23;;;8.23;;
71975;SDS011;68326;52.124;5.424;2023-04-22T13:05:44;11.27;;;8.30;;
71975;SDS011;68326;52.124;5.424;2023-04-22T13:08:11;11.75;;;8.25;;
71975;SDS011;68326;52.124;5.424;2023-04-22T13:10:37;11.85;;;8.57;;
71975;SDS011;68326;52.124;5.424;2023-04-22T13:13:03;13.40;;;8.70;;
71975;SDS011;68326;52.124;5.424;2023-04-22T13:15:44;14.15;;;9.10;;
71975;SDS011;68326;52.124;5.424;2023-04-22T13:18:18;15.03;;;8.93;;
71975;SDS011;68326;52.124;5.424;2023-04-22T13:20:45;13.52;;;9.13;;
71975;SDS011;68326;52.124;5.424;2023-04-22T13:23:12;12.63;;;8.93;;
71975;SDS011;68326;52.124;5.424;2023-04-22T13:25:40;12.95;;;9.38;;
71975;SDS011;68326;52.124;5.424;2023-04-22T13:28:06;15.38;;;9.73;;
71975;SDS011;68326;52.124;5.424;2023-04-22T13:30:33;16.07;;;10.20;;
71975;SDS011;68326;52.124;5.424;2023-04-22T13:32:59;18.30;;;10.88;;
71975;SDS011;68326;52.124;5.424;2023-04-22T13:35:26;16.92;;;11.40;;
71975;SDS011;68326;52.124;5.424;2023-04-22T13:37:52;17.05;;;11.18;;
71975;SDS011;68326;52.124;5.424;2023-04-22T13:40:19;16.73;;;11.00;;
71975;SDS011;68326;52.124;5.424;2023-04-22T13:42:45;17.33;;;11.23;;
71975;SDS011;68326;52.124;5.424;2023-04-22T13:45:12;18.13;;;11.00;;
71975;SDS011;68326;52.124;5.424;2023-04-22T13:47:38;17.48;;;11.57;;
71975;SDS011;68326;52.124;5.424;2023-04-22T13:50:05;18.50;;;11.35;;
71975;SDS011;68326;52.124;5.424;2023-04-22T13:52:32;19.42;;;11.90;;
71975;SDS011;68326;52.124;5.424;2023-04-22T13:54:59;18.80;;;11.07;;
71975;SDS011;68326;52.124;5.424;2023-04-22T13:57:25;19.92;;;11.02;;
71975;SDS011;68326;52.124;5.424;2023-04-22T13:59:52;18.30;;;11.88;;
71975;SDS011;68326;52.124;5.424;2023-04-22T14:02:18;19.50;;;12.57;;
71975;SDS011;68326;52.124;5.424;2023-04-22T14:04:45;18.52;;;11.95;;
71975;SDS011;68326;52.124;5.424;2023-04-22T14:07:12;17.57;;;11.87;;
71975;SDS011;68326;52.124;5.424;2023-04-22T14:09:38;22.88;;;12.85;;
71975;SDS011;68326;52.124;5.424;2023-04-22T14:12:06;21.77;;;11.98;;
71975;SDS011;68326;52.124;5.424;2023-04-22T14:14:33;19.50;;;12.25;;
71975;SDS011;68326;52.124;5.424;2023-04-22T14:16:59;19.67;;;11.77;;
71975;SDS011;68326;52.124;5.424;2023-04-22T14:19:26;20.03;;;11.57;;
71975;SDS011;68326;52.124;5.424;2023-04-22T14:21:55;20.33;;;12.32;;
71975;SDS011;68326;52.124;5.424;2023-04-22T14:24:22;17.45;;;11.68;;
71975;SDS011;68326;52.124;5.424;2023-04-22T14:26:49;18.85;;;12.00;;
71975;SDS011;68326;52.124;5.424;2023-04-22T14:29:19;17.50;;;11.80;;
71975;SDS011;68326;52.124;5.424;2023-04-22T14:31:46;18.50;;;11.67;;
71975;SDS011;68326;52.124;5.424;2023-04-22T14:34:14;16.80;;;10.93;;
71975;SDS011;68326;52.124;5.424;2023-04-22T14:36:41;17.35;;;11.10;;
71975;SDS011;68326;52.124;5.424;2023-04-22T14:39:07;19.67;;;11.48;;
71975;SDS011;68326;52.124;5.424;2023-04-22T14:41:34;17.90;;;11.60;;
71975;SDS011;68326;52.124;5.424;2023-04-22T14:44:00;18.70;;;12.10;;
71975;SDS011;68326;52.124;5.424;2023-04-22T14:46:27;18.17;;;11.88;;
71975;SDS011;68326;52.124;5.424;2023-04-22T14:48:55;17.45;;;11.52;;